createdAt,value
2018-10-21T00:00:13.772Z,1017.43
2018-10-21T00:01:13.791Z,1017.45
2018-10-21T00:02:13.837Z,1017.42
2018-10-21T00:03:13.963Z,1017.45
2018-10-21T00:04:13.856Z,1017.46
2018-10-21T00:05:13.861Z,1017.44
2018-10-21T00:06:13.891Z,1017.46
2018-10-21T00:07:13.909Z,1017.46
2018-10-21T00:08:13.922Z,1017.45
2018-10-21T00:09:14.001Z,1017.44
2018-10-21T00:10:13.953Z,1017.42
2018-10-21T00:11:13.978Z,1017.42
2018-10-21T00:12:14.007Z,1017.41
2018-10-21T00:13:14.021Z,1017.38
2018-10-21T00:14:14.039Z,1017.41
2018-10-21T00:15:14.146Z,1017.43
2018-10-21T00:16:14.112Z,1017.44
2018-10-21T00:17:14.097Z,1017.41
2018-10-21T00:18:14.111Z,1017.38
2018-10-21T00:20:14.151Z,1017.35
2018-10-21T00:21:14.292Z,1017.34
2018-10-21T00:22:14.189Z,1017.32
2018-10-21T00:23:14.210Z,1017.27
2018-10-21T00:24:14.228Z,1017.28
2018-10-21T00:25:14.237Z,1017.27
2018-10-21T00:26:14.261Z,1017.21
2018-10-21T00:27:14.326Z,1017.18
2018-10-21T00:28:14.301Z,1017.17
2018-10-21T00:29:14.324Z,1017.15
2018-10-21T00:31:14.362Z,1017.12
2018-10-21T00:32:14.381Z,1017.12
2018-10-21T00:33:14.435Z,1017.11
2018-10-21T00:34:14.415Z,1017.13
2018-10-21T00:35:14.447Z,1017.10
2018-10-21T00:36:14.460Z,1017.13
2018-10-21T00:37:14.480Z,1017.11
2018-10-21T00:38:14.488Z,1017.09
2018-10-21T00:39:14.596Z,1017.12
2018-10-21T00:40:14.594Z,1017.11
2018-10-21T00:41:14.554Z,1017.09
2018-10-21T00:42:14.570Z,1017.08
2018-10-21T00:43:14.589Z,1017.07
2018-10-21T00:44:14.628Z,1017.08
2018-10-21T00:45:14.649Z,1017.07
2018-10-21T00:46:14.658Z,1017.06
2018-10-21T00:47:14.659Z,1017.10
2018-10-21T00:48:14.678Z,1017.08
2018-10-21T00:49:14.715Z,1017.11
2018-10-21T00:50:14.714Z,1017.14
2018-10-21T00:51:14.752Z,1017.10
2018-10-21T00:52:14.748Z,1017.11
2018-10-21T00:53:14.787Z,1017.05
2018-10-21T00:54:14.795Z,1017.06
2018-10-21T00:55:14.829Z,1017.08
2018-10-21T00:56:14.820Z,1017.10
2018-10-21T00:57:14.922Z,1017.07
2018-10-21T00:58:14.864Z,1017.04
2018-10-21T00:59:14.885Z,1017.05
2018-10-21T01:00:14.893Z,1017.03
2018-10-21T01:01:14.922Z,1017.03
2018-10-21T01:02:14.939Z,1017.03
2018-10-21T01:03:15.029Z,1016.98
2018-10-21T01:04:15.075Z,1016.98
2018-10-21T01:05:15.000Z,1017.00
2018-10-21T01:06:15.021Z,1017.02
2018-10-21T01:07:15.032Z,1017.02
2018-10-21T01:08:15.070Z,1017.01
2018-10-21T01:09:15.122Z,1016.99
2018-10-21T01:10:15.134Z,1017.02
2018-10-21T01:11:15.115Z,1017.02
2018-10-21T01:12:15.125Z,1017.03
2018-10-21T01:13:15.145Z,1017.04
2018-10-21T01:14:15.161Z,1016.99
2018-10-21T01:15:15.221Z,1016.95
2018-10-21T01:16:15.200Z,1016.99
2018-10-21T01:17:15.220Z,1016.97
2018-10-21T01:18:15.241Z,1017.01
2018-10-21T01:19:15.312Z,1016.96
2018-10-21T01:20:15.283Z,1017.00
2018-10-21T01:21:15.343Z,1017.00
2018-10-21T01:22:15.306Z,1017.04
2018-10-21T01:23:15.337Z,1017.01
2018-10-21T01:24:15.364Z,1017.01
2018-10-21T01:25:15.401Z,1017.03
2018-10-21T01:26:15.387Z,1017.02
2018-10-21T01:27:15.463Z,1017.02
2018-10-21T01:28:15.425Z,1017.00
2018-10-21T01:29:15.436Z,1017.04
2018-10-21T01:30:15.461Z,1016.94
2018-10-21T01:31:15.476Z,1016.93
2018-10-21T01:32:15.503Z,1016.92
2018-10-21T01:33:15.674Z,1016.94
2018-10-21T01:34:15.538Z,1016.97
2018-10-21T01:35:15.552Z,1016.94
2018-10-21T01:36:15.687Z,1016.98
2018-10-21T01:37:15.678Z,1016.98
2018-10-21T01:38:15.637Z,1016.96
2018-10-21T01:39:15.680Z,1016.92
2018-10-21T01:40:15.649Z,1016.92
2018-10-21T01:41:15.669Z,1016.85
2018-10-21T01:42:15.694Z,1016.84
2018-10-21T01:43:15.701Z,1016.81
2018-10-21T01:44:15.715Z,1016.79
2018-10-21T01:45:15.887Z,1016.82
2018-10-21T01:46:15.749Z,1016.84
2018-10-21T01:47:15.777Z,1016.83
2018-10-21T01:48:15.791Z,1016.86
2018-10-21T01:49:15.807Z,1016.85
2018-10-21T01:50:15.827Z,1016.85
2018-10-21T01:51:15.943Z,1016.87
2018-10-21T01:52:15.867Z,1016.86
2018-10-21T01:53:15.885Z,1016.82
2018-10-21T01:54:15.901Z,1016.83
2018-10-21T01:55:15.919Z,1016.84
2018-10-21T01:56:15.942Z,1016.83
2018-10-21T01:58:15.978Z,1016.80
2018-10-21T01:59:16.004Z,1016.75
2018-10-21T02:00:16.210Z,1016.78
2018-10-21T02:01:16.030Z,1016.72
2018-10-21T02:02:16.050Z,1016.73
2018-10-21T02:03:16.220Z,1016.73
2018-10-21T02:04:16.083Z,1016.75
2018-10-21T02:05:16.104Z,1016.69
2018-10-21T02:06:16.122Z,1016.64
2018-10-21T02:07:16.139Z,1016.67
2018-10-21T02:08:16.158Z,1016.65
2018-10-21T02:09:16.263Z,1016.69
2018-10-21T02:10:16.195Z,1016.67
2018-10-21T02:11:16.219Z,1016.73
2018-10-21T02:12:16.239Z,1016.70
2018-10-21T02:14:16.345Z,1016.65
2018-10-21T02:15:16.406Z,1016.65
2018-10-21T02:16:16.306Z,1016.62
2018-10-21T02:17:16.330Z,1016.60
2018-10-21T02:19:16.376Z,1016.57
2018-10-21T02:20:16.379Z,1016.53
2018-10-21T02:21:16.463Z,1016.55
2018-10-21T02:22:16.423Z,1016.51
2018-10-21T02:23:16.436Z,1016.55
2018-10-21T02:24:16.461Z,1016.50
2018-10-21T02:25:16.474Z,1016.45
2018-10-21T02:26:16.499Z,1016.45
2018-10-21T02:27:16.603Z,1016.42
2018-10-21T02:29:16.536Z,1016.40
2018-10-21T02:30:16.562Z,1016.41
2018-10-21T02:31:16.573Z,1016.42
2018-10-21T02:32:16.597Z,1016.42
2018-10-21T02:33:16.682Z,1016.40
2018-10-21T02:34:16.647Z,1016.49
2018-10-21T02:35:16.644Z,1016.52
2018-10-21T02:36:16.676Z,1016.50
2018-10-21T02:37:16.685Z,1016.54
2018-10-21T02:38:16.710Z,1016.58
2018-10-21T02:39:16.800Z,1016.60
2018-10-21T02:40:16.738Z,1016.59
2018-10-21T02:41:16.772Z,1016.56
2018-10-21T02:42:16.826Z,1016.52
2018-10-21T02:43:16.794Z,1016.49
2018-10-21T02:44:16.823Z,1016.46
2018-10-21T02:45:16.914Z,1016.45
2018-10-21T02:46:16.851Z,1016.48
2018-10-21T02:47:16.870Z,1016.47
2018-10-21T02:48:16.890Z,1016.42
2018-10-21T02:49:16.903Z,1016.44
2018-10-21T02:50:16.928Z,1016.50
2018-10-21T02:51:17.040Z,1016.44
2018-10-21T02:52:16.961Z,1016.44
2018-10-21T02:53:16.982Z,1016.45
2018-10-21T02:54:16.998Z,1016.44
2018-10-21T02:55:17.016Z,1016.46
2018-10-21T02:56:17.107Z,1016.45
2018-10-21T02:57:17.184Z,1016.48
2018-10-21T02:58:17.069Z,1016.44
2018-10-21T02:59:17.087Z,1016.47
2018-10-21T03:00:17.100Z,1016.43
2018-10-21T03:01:17.122Z,1016.45
2018-10-21T03:02:17.141Z,1016.45
2018-10-21T03:03:17.201Z,1016.43
2018-10-21T03:04:17.175Z,1016.46
2018-10-21T03:05:17.192Z,1016.50
2018-10-21T03:06:17.217Z,1016.49
2018-10-21T03:07:17.321Z,1016.49
2018-10-21T03:08:17.250Z,1016.56
2018-10-21T03:09:17.385Z,1016.55
2018-10-21T03:10:17.287Z,1016.57
2018-10-21T03:11:17.303Z,1016.58
2018-10-21T03:12:17.323Z,1016.58
2018-10-21T03:13:17.334Z,1016.61
2018-10-21T03:14:17.357Z,1016.58
2018-10-21T03:15:17.471Z,1016.56
2018-10-21T03:16:17.395Z,1016.54
2018-10-21T03:17:17.426Z,1016.52
2018-10-21T03:18:17.442Z,1016.50
2018-10-21T03:19:17.439Z,1016.54
2018-10-21T03:20:17.464Z,1016.55
2018-10-21T03:21:17.566Z,1016.54
2018-10-21T03:22:17.495Z,1016.51
2018-10-21T03:23:17.509Z,1016.55
2018-10-21T03:24:17.539Z,1016.55
2018-10-21T03:25:17.557Z,1016.59
2018-10-21T03:26:17.575Z,1016.56
2018-10-21T03:27:17.724Z,1016.59
2018-10-21T03:28:17.606Z,1016.61
2018-10-21T03:29:17.629Z,1016.62
2018-10-21T03:30:17.646Z,1016.65
2018-10-21T03:31:17.661Z,1016.63
2018-10-21T03:32:17.674Z,1016.70
2018-10-21T03:33:17.843Z,1016.64
2018-10-21T03:34:17.711Z,1016.69
2018-10-21T03:35:17.780Z,1016.68
2018-10-21T03:36:17.742Z,1016.68
2018-10-21T03:37:17.824Z,1016.69
2018-10-21T03:38:17.790Z,1016.69
2018-10-21T03:39:17.800Z,1016.66
2018-10-21T03:40:17.908Z,1016.66
2018-10-21T03:41:17.844Z,1016.68
2018-10-21T03:42:17.858Z,1016.68
2018-10-21T03:43:17.875Z,1016.68
2018-10-21T03:44:17.889Z,1016.71
2018-10-21T03:45:17.913Z,1016.68
2018-10-21T03:46:17.946Z,1016.73
2018-10-21T03:47:17.933Z,1016.71
2018-10-21T03:48:18.077Z,1016.73
2018-10-21T03:49:17.977Z,1016.76
2018-10-21T03:50:17.993Z,1016.79
2018-10-21T03:51:18.018Z,1016.82
2018-10-21T03:52:18.059Z,1016.82
2018-10-21T03:53:18.045Z,1016.79
2018-10-21T03:54:18.075Z,1016.82
2018-10-21T03:55:18.081Z,1016.84
2018-10-21T03:56:18.112Z,1016.89
2018-10-21T03:57:18.115Z,1016.90
2018-10-21T03:58:18.138Z,1016.91
2018-10-21T03:59:18.155Z,1016.89
2018-10-21T04:00:18.172Z,1016.90
2018-10-21T04:01:18.238Z,1016.94
2018-10-21T04:02:18.209Z,1016.90
2018-10-21T04:03:18.219Z,1016.90
2018-10-21T04:04:18.307Z,1016.93
2018-10-21T04:05:18.331Z,1016.92
2018-10-21T04:06:18.277Z,1016.89
2018-10-21T04:07:18.291Z,1016.89
2018-10-21T04:08:18.312Z,1016.91
2018-10-21T04:09:18.330Z,1016.90
2018-10-21T04:10:18.358Z,1016.91
2018-10-21T04:11:18.365Z,1016.92
2018-10-21T04:12:18.377Z,1016.90
2018-10-21T04:13:18.397Z,1016.91
2018-10-21T04:14:18.418Z,1016.92
2018-10-21T04:15:18.444Z,1016.87
2018-10-21T04:16:18.571Z,1016.87
2018-10-21T04:17:18.469Z,1016.86
2018-10-21T04:18:18.489Z,1016.84
2018-10-21T04:19:18.504Z,1016.86
2018-10-21T04:20:18.522Z,1016.88
2018-10-21T04:21:18.538Z,1016.90
2018-10-21T04:22:18.553Z,1016.95
2018-10-21T04:23:18.571Z,1016.91
2018-10-21T04:24:18.591Z,1016.86
2018-10-21T04:25:18.608Z,1016.88
2018-10-21T04:26:18.620Z,1016.91
2018-10-21T04:27:18.644Z,1016.92
2018-10-21T04:28:18.723Z,1016.91
2018-10-21T04:29:18.685Z,1016.90
2018-10-21T04:30:18.704Z,1016.93
2018-10-21T04:31:18.713Z,1016.92
2018-10-21T04:32:18.729Z,1016.91
2018-10-21T04:33:18.748Z,1016.93
2018-10-21T04:34:18.765Z,1016.88
2018-10-21T04:35:18.816Z,1016.94
2018-10-21T04:36:18.796Z,1016.91
2018-10-21T04:37:18.820Z,1016.94
2018-10-21T04:38:18.847Z,1016.92
2018-10-21T04:39:18.858Z,1016.93
2018-10-21T04:40:19.016Z,1016.91
2018-10-21T04:41:18.887Z,1016.92
2018-10-21T04:42:18.901Z,1016.91
2018-10-21T04:43:18.918Z,1016.91
2018-10-21T04:44:18.978Z,1016.87
2018-10-21T04:45:18.955Z,1016.87
2018-10-21T04:46:18.980Z,1016.89
2018-10-21T04:47:18.989Z,1016.86
2018-10-21T04:48:19.005Z,1016.84
2018-10-21T04:49:19.023Z,1016.81
2018-10-21T04:50:19.043Z,1016.80
2018-10-21T04:51:19.060Z,1016.80
2018-10-21T04:52:19.082Z,1016.77
2018-10-21T04:53:19.089Z,1016.77
2018-10-21T04:54:19.113Z,1016.78
2018-10-21T04:55:19.131Z,1016.71
2018-10-21T04:56:19.146Z,1016.70
2018-10-21T04:57:19.282Z,1016.66
2018-10-21T04:58:19.182Z,1016.66
2018-10-21T04:59:19.198Z,1016.64
2018-10-21T05:00:19.213Z,1016.64
2018-10-21T05:01:19.232Z,1016.66
2018-10-21T05:02:19.247Z,1016.66
2018-10-21T05:03:19.305Z,1016.68
2018-10-21T05:04:19.299Z,1016.64
2018-10-21T05:05:19.297Z,1016.60
2018-10-21T05:06:19.312Z,1016.61
2018-10-21T05:07:19.337Z,1016.61
2018-10-21T05:08:19.351Z,1016.57
2018-10-21T05:09:19.378Z,1016.60
2018-10-21T05:10:19.398Z,1016.59
2018-10-21T05:11:19.400Z,1016.64
2018-10-21T05:12:19.454Z,1016.60
2018-10-21T05:13:19.440Z,1016.59
2018-10-21T05:14:19.456Z,1016.65
2018-10-21T05:15:19.632Z,1016.61
2018-10-21T05:16:19.506Z,1016.60
2018-10-21T05:17:19.513Z,1016.56
2018-10-21T05:18:19.521Z,1016.51
2018-10-21T05:19:19.547Z,1016.44
2018-10-21T05:20:19.565Z,1016.43
2018-10-21T05:21:19.580Z,1016.44
2018-10-21T05:22:19.680Z,1016.42
2018-10-21T05:23:19.610Z,1016.40
2018-10-21T05:24:19.649Z,1016.42
2018-10-21T05:25:19.755Z,1016.46
2018-10-21T05:26:19.667Z,1016.46
2018-10-21T05:27:19.694Z,1016.43
2018-10-21T05:28:19.698Z,1016.46
2018-10-21T05:29:19.715Z,1016.48
2018-10-21T05:30:19.730Z,1016.46
2018-10-21T05:31:19.747Z,1016.43
2018-10-21T05:32:19.765Z,1016.43
2018-10-21T05:33:19.776Z,1016.44
2018-10-21T05:34:19.797Z,1016.44
2018-10-21T05:35:19.816Z,1016.44
2018-10-21T05:36:19.832Z,1016.41
2018-10-21T05:37:19.854Z,1016.38
2018-10-21T05:38:19.870Z,1016.36
2018-10-21T05:39:19.890Z,1016.42
2018-10-21T05:40:19.907Z,1016.38
2018-10-21T05:41:19.910Z,1016.39
2018-10-21T05:42:19.934Z,1016.43
2018-10-21T05:43:19.961Z,1016.45
2018-10-21T05:44:19.972Z,1016.40
2018-10-21T05:45:19.994Z,1016.44
2018-10-21T05:46:20.009Z,1016.48
2018-10-21T05:47:20.063Z,1016.46
2018-10-21T05:48:20.043Z,1016.50
2018-10-21T05:49:20.056Z,1016.48
2018-10-21T05:50:20.080Z,1016.47
2018-10-21T05:51:20.096Z,1016.49
2018-10-21T05:52:20.103Z,1016.45
2018-10-21T05:53:20.195Z,1016.47
2018-10-21T05:54:20.142Z,1016.47
2018-10-21T05:55:20.157Z,1016.47
2018-10-21T05:56:20.169Z,1016.47
2018-10-21T05:57:20.193Z,1016.41
2018-10-21T05:58:20.301Z,1016.43
2018-10-21T05:59:20.228Z,1016.42
2018-10-21T06:00:20.243Z,1016.44
2018-10-21T06:01:20.266Z,1016.45
2018-10-21T06:02:20.278Z,1016.44
2018-10-21T06:03:20.296Z,1016.43
2018-10-21T06:04:20.308Z,1016.44
2018-10-21T06:05:20.338Z,1016.46
2018-10-21T06:06:20.451Z,1016.47
2018-10-21T06:07:20.370Z,1016.50
2018-10-21T06:08:20.385Z,1016.48
2018-10-21T06:09:20.402Z,1016.46
2018-10-21T06:10:20.429Z,1016.46
2018-10-21T06:11:20.435Z,1016.49
2018-10-21T06:12:20.443Z,1016.52
2018-10-21T06:13:20.475Z,1016.54
2018-10-21T06:14:20.491Z,1016.56
2018-10-21T06:15:20.508Z,1016.55
2018-10-21T06:16:20.669Z,1016.55
2018-10-21T06:17:20.535Z,1016.56
2018-10-21T06:18:20.551Z,1016.58
2018-10-21T06:19:20.572Z,1016.60
2018-10-21T06:20:20.585Z,1016.62
2018-10-21T06:21:20.604Z,1016.64
2018-10-21T06:22:20.621Z,1016.65
2018-10-21T06:23:20.637Z,1016.67
2018-10-21T06:24:20.657Z,1016.68
2018-10-21T06:25:20.671Z,1016.68
2018-10-21T06:26:20.691Z,1016.70
2018-10-21T06:27:20.711Z,1016.69
2018-10-21T06:28:20.718Z,1016.70
2018-10-21T06:29:20.736Z,1016.66
2018-10-21T06:30:20.759Z,1016.69
2018-10-21T06:31:20.773Z,1016.68
2018-10-21T06:32:20.785Z,1016.72
2018-10-21T06:33:20.797Z,1016.73
2018-10-21T06:34:20.817Z,1016.75
2018-10-21T06:35:20.841Z,1016.74
2018-10-21T06:36:20.858Z,1016.75
2018-10-21T06:37:20.884Z,1016.76
2018-10-21T06:38:20.898Z,1016.79
2018-10-21T06:39:20.906Z,1016.77
2018-10-21T06:40:20.919Z,1016.80
2018-10-21T06:41:20.950Z,1016.84
2018-10-21T06:42:20.969Z,1016.84
2018-10-21T06:43:20.993Z,1016.81
2018-10-21T06:44:20.987Z,1016.85
2018-10-21T06:45:21.121Z,1016.84
2018-10-21T06:46:21.025Z,1016.84
2018-10-21T06:47:21.036Z,1016.81
2018-10-21T06:48:21.073Z,1016.81
2018-10-21T06:49:21.129Z,1016.81
2018-10-21T06:50:21.101Z,1016.75
2018-10-21T06:51:21.121Z,1016.72
2018-10-21T06:52:21.133Z,1016.77
2018-10-21T06:53:21.144Z,1016.77
2018-10-21T06:54:21.163Z,1016.80
2018-10-21T06:55:21.174Z,1016.78
2018-10-21T06:56:21.255Z,1016.78
2018-10-21T06:57:21.341Z,1016.82
2018-10-21T06:58:21.229Z,1016.81
2018-10-21T06:59:21.241Z,1016.82
2018-10-21T07:00:21.264Z,1016.79
2018-10-21T07:01:21.304Z,1016.86
2018-10-21T07:02:21.301Z,1016.89
2018-10-21T07:03:21.314Z,1016.87
2018-10-21T07:04:21.396Z,1016.88
2018-10-21T07:05:21.339Z,1016.93
2018-10-21T07:06:21.367Z,1016.93
2018-10-21T07:07:21.381Z,1016.95
2018-10-21T07:08:21.400Z,1017.00
2018-10-21T07:09:21.416Z,1017.02
2018-10-21T07:10:21.425Z,1017.04
2018-10-21T07:11:21.463Z,1017.11
2018-10-21T07:12:21.465Z,1017.15
2018-10-21T07:13:21.481Z,1017.13
2018-10-21T07:14:21.512Z,1017.16
2018-10-21T07:15:21.624Z,1017.18
2018-10-21T07:16:21.553Z,1017.22
2018-10-21T07:17:21.563Z,1017.22
2018-10-21T07:18:21.566Z,1017.18
2018-10-21T07:19:21.590Z,1017.17
2018-10-21T07:20:21.605Z,1017.16
2018-10-21T07:21:21.615Z,1017.14
2018-10-21T07:22:21.643Z,1017.13
2018-10-21T07:23:21.659Z,1017.13
2018-10-21T07:24:21.681Z,1017.14
2018-10-21T07:25:21.691Z,1017.14
2018-10-21T07:26:21.717Z,1017.19
2018-10-21T07:27:21.721Z,1017.23
2018-10-21T07:28:21.751Z,1017.21
2018-10-21T07:29:21.773Z,1017.23
2018-10-21T07:30:21.881Z,1017.23
2018-10-21T07:31:21.791Z,1017.18
2018-10-21T07:32:21.812Z,1017.17
2018-10-21T07:33:21.830Z,1017.21
2018-10-21T07:34:21.849Z,1017.24
2018-10-21T07:35:21.852Z,1017.27
2018-10-21T07:36:21.955Z,1017.26
2018-10-21T07:37:21.897Z,1017.22
2018-10-21T07:38:21.908Z,1017.25
2018-10-21T07:39:21.929Z,1017.29
2018-10-21T07:40:21.953Z,1017.24
2018-10-21T07:41:21.962Z,1017.30
2018-10-21T07:42:21.992Z,1017.26
2018-10-21T07:43:21.988Z,1017.23
2018-10-21T07:44:22.011Z,1017.18
2018-10-21T07:45:22.023Z,1017.14
2018-10-21T07:46:22.063Z,1017.21
2018-10-21T07:47:22.083Z,1017.21
2018-10-21T07:48:22.081Z,1017.26
2018-10-21T07:49:22.102Z,1017.23
2018-10-21T07:50:22.123Z,1017.25
2018-10-21T07:51:22.147Z,1017.22
2018-10-21T07:52:22.153Z,1017.23
2018-10-21T07:53:22.168Z,1017.24
2018-10-21T07:54:22.199Z,1017.25
2018-10-21T07:55:22.406Z,1017.24
2018-10-21T07:56:22.223Z,1017.21
2018-10-21T07:57:22.254Z,1017.18
2018-10-21T07:58:22.267Z,1017.23
2018-10-21T07:59:22.285Z,1017.24
2018-10-21T08:00:22.286Z,1017.28
2018-10-21T08:01:22.471Z,1017.22
2018-10-21T08:02:22.327Z,1017.22
2018-10-21T08:03:22.372Z,1017.25
2018-10-21T08:04:22.355Z,1017.25
2018-10-21T08:05:22.377Z,1017.21
2018-10-21T08:06:22.395Z,1017.21
2018-10-21T08:07:22.414Z,1017.24
2018-10-21T08:08:22.428Z,1017.26
2018-10-21T08:09:22.453Z,1017.22
2018-10-21T08:10:22.479Z,1017.21
2018-10-21T08:11:22.508Z,1017.16
2018-10-21T08:12:22.494Z,1017.18
2018-10-21T08:13:22.517Z,1017.19
2018-10-21T08:14:22.535Z,1017.18
2018-10-21T08:15:22.554Z,1017.18
2018-10-21T08:16:22.575Z,1017.20
2018-10-21T08:17:22.587Z,1017.19
2018-10-21T08:18:22.605Z,1017.11
2018-10-21T08:19:22.615Z,1017.15
2018-10-21T08:20:22.646Z,1017.12
2018-10-21T08:21:22.764Z,1017.08
2018-10-21T08:22:22.676Z,1017.13
2018-10-21T08:23:22.701Z,1017.06
2018-10-21T08:24:22.708Z,1017.07
2018-10-21T08:25:22.725Z,1017.10
2018-10-21T08:26:22.818Z,1017.10
2018-10-21T08:27:22.790Z,1017.09
2018-10-21T08:28:22.781Z,1017.11
2018-10-21T08:29:22.819Z,1017.10
2018-10-21T08:30:22.814Z,1017.08
2018-10-21T08:31:22.832Z,1017.09
2018-10-21T08:32:22.856Z,1017.10
2018-10-21T08:33:22.877Z,1017.09
2018-10-21T08:34:22.909Z,1017.10
2018-10-21T08:35:22.908Z,1017.08
2018-10-21T08:36:22.919Z,1017.07
2018-10-21T08:37:22.947Z,1017.07
2018-10-21T08:38:22.953Z,1017.06
2018-10-21T08:39:23.035Z,1017.04
2018-10-21T08:40:23.000Z,1017.01
2018-10-21T08:41:23.015Z,1017.07
2018-10-21T08:42:23.024Z,1017.03
2018-10-21T08:43:23.059Z,1016.99
2018-10-21T08:44:23.078Z,1017.00
2018-10-21T08:45:23.081Z,1016.96
2018-10-21T08:46:23.250Z,1016.96
2018-10-21T08:47:23.120Z,1016.94
2018-10-21T08:48:23.136Z,1016.96
2018-10-21T08:49:23.165Z,1016.96
2018-10-21T08:50:23.174Z,1016.97
2018-10-21T08:51:23.185Z,1016.97
2018-10-21T08:52:23.218Z,1016.95
2018-10-21T08:53:23.234Z,1016.99
2018-10-21T08:54:23.263Z,1016.98
2018-10-21T08:55:23.257Z,1017.00
2018-10-21T08:56:23.288Z,1017.02
2018-10-21T08:57:23.302Z,1016.97
2018-10-21T08:58:23.324Z,1016.98
2018-10-21T08:59:23.341Z,1016.97
2018-10-21T09:00:23.358Z,1016.96
2018-10-21T09:01:23.370Z,1016.92
2018-10-21T09:02:23.388Z,1016.89
2018-10-21T09:03:23.427Z,1016.89
2018-10-21T09:04:23.438Z,1016.88
2018-10-21T09:05:23.448Z,1016.85
2018-10-21T09:06:23.467Z,1016.85
2018-10-21T09:07:23.526Z,1016.83
2018-10-21T09:08:23.501Z,1016.84
2018-10-21T09:09:23.528Z,1016.79
2018-10-21T09:10:23.789Z,1016.80
2018-10-21T09:11:23.559Z,1016.80
2018-10-21T09:12:23.598Z,1016.76
2018-10-21T09:13:23.598Z,1016.74
2018-10-21T09:14:23.611Z,1016.73
2018-10-21T09:15:23.687Z,1016.72
2018-10-21T09:16:23.670Z,1016.70
2018-10-21T09:17:23.664Z,1016.72
2018-10-21T09:18:23.760Z,1016.67
2018-10-21T09:19:23.705Z,1016.69
2018-10-21T09:20:23.736Z,1016.66
2018-10-21T09:21:23.750Z,1016.70
2018-10-21T09:22:23.771Z,1016.69
2018-10-21T09:23:23.781Z,1016.66
2018-10-21T09:24:23.810Z,1016.73
2018-10-21T09:25:23.826Z,1016.70
2018-10-21T09:26:23.830Z,1016.74
2018-10-21T09:27:23.858Z,1016.73
2018-10-21T09:28:23.881Z,1016.73
2018-10-21T09:29:23.917Z,1016.72
2018-10-21T09:30:23.911Z,1016.70
2018-10-21T09:31:24.063Z,1016.71
2018-10-21T09:32:23.958Z,1016.70
2018-10-21T09:33:23.999Z,1016.71
2018-10-21T09:34:23.994Z,1016.74
2018-10-21T09:35:24.006Z,1016.73
2018-10-21T09:36:24.026Z,1016.72
2018-10-21T09:37:24.048Z,1016.71
2018-10-21T09:38:24.067Z,1016.73
2018-10-21T09:39:24.095Z,1016.73
2018-10-21T09:40:24.164Z,1016.72
2018-10-21T09:41:24.379Z,1016.75
2018-10-21T09:42:24.154Z,1016.74
2018-10-21T09:43:24.200Z,1016.72
2018-10-21T09:44:24.199Z,1016.74
2018-10-21T09:45:24.198Z,1016.72
2018-10-21T09:46:24.379Z,1016.73
2018-10-21T09:47:24.228Z,1016.70
2018-10-21T09:48:24.303Z,1016.73
2018-10-21T09:49:24.266Z,1016.65
2018-10-21T09:50:24.285Z,1016.71
2018-10-21T09:51:24.951Z,1016.72
2018-10-21T09:52:24.726Z,1016.69
2018-10-21T09:53:24.414Z,1016.66
2018-10-21T09:54:24.365Z,1016.67
2018-10-21T09:55:24.424Z,1016.67
2018-10-21T09:56:24.417Z,1016.67
2018-10-21T09:57:24.440Z,1016.67
2018-10-21T09:58:24.457Z,1016.67
2018-10-21T09:59:24.530Z,1016.64
2018-10-21T10:00:24.580Z,1016.60
2018-10-21T10:01:24.503Z,1016.59
2018-10-21T10:02:24.522Z,1016.57
2018-10-21T10:03:24.551Z,1016.57
2018-10-21T10:04:24.620Z,1016.62
2018-10-21T10:05:24.643Z,1016.63
2018-10-21T10:06:24.601Z,1016.60
2018-10-21T10:07:24.618Z,1016.55
2018-10-21T10:08:24.630Z,1016.56
2018-10-21T10:09:24.657Z,1016.52
2018-10-21T10:10:24.662Z,1016.49
2018-10-21T10:11:24.687Z,1016.50
2018-10-21T10:12:24.705Z,1016.50
2018-10-21T10:13:24.727Z,1016.48
2018-10-21T10:14:24.743Z,1016.44
2018-10-21T10:15:24.762Z,1016.48
2018-10-21T10:16:24.782Z,1016.47
2018-10-21T10:17:24.805Z,1016.49
2018-10-21T10:18:24.816Z,1016.50
2018-10-21T10:19:24.849Z,1016.47
2018-10-21T10:20:24.870Z,1016.47
2018-10-21T10:21:24.884Z,1016.44
2018-10-21T10:22:24.904Z,1016.44
2018-10-21T10:23:25.011Z,1016.39
2018-10-21T10:24:24.952Z,1016.38
2018-10-21T10:25:24.960Z,1016.36
2018-10-21T10:26:24.971Z,1016.37
2018-10-21T10:27:24.998Z,1016.33
2018-10-21T10:28:25.011Z,1016.34
2018-10-21T10:29:25.025Z,1016.34
2018-10-21T10:30:25.124Z,1016.32
2018-10-21T10:31:25.079Z,1016.35
2018-10-21T10:32:25.089Z,1016.34
2018-10-21T10:33:25.113Z,1016.37
2018-10-21T10:34:25.135Z,1016.34
2018-10-21T10:35:25.143Z,1016.34
2018-10-21T10:36:25.210Z,1016.28
2018-10-21T10:37:25.263Z,1016.28
2018-10-21T10:38:25.234Z,1016.26
2018-10-21T10:39:25.226Z,1016.24
2018-10-21T10:40:25.272Z,1016.26
2018-10-21T10:41:25.263Z,1016.18
2018-10-21T10:42:25.280Z,1016.24
2018-10-21T10:43:25.306Z,1016.19
2018-10-21T10:44:25.322Z,1016.12
2018-10-21T10:45:25.354Z,1016.12
2018-10-21T10:46:25.380Z,1016.09
2018-10-21T10:47:25.385Z,1016.09
2018-10-21T10:48:25.418Z,1016.09
2018-10-21T10:49:25.431Z,1016.08
2018-10-21T10:50:25.443Z,1016.05
2018-10-21T10:51:25.536Z,1016.06
2018-10-21T10:52:25.520Z,1016.04
2018-10-21T10:53:25.571Z,1016.08
2018-10-21T10:54:25.767Z,1016.11
2018-10-21T10:55:25.545Z,1016.12
2018-10-21T10:56:25.568Z,1016.10
2018-10-21T10:57:25.611Z,1016.05
2018-10-21T10:58:25.599Z,1016.05
2018-10-21T10:59:25.634Z,1016.01
2018-10-21T11:00:25.643Z,1015.97
2018-10-21T11:01:25.668Z,1016.03
2018-10-21T11:02:25.713Z,1016.02
2018-10-21T11:03:25.714Z,1015.99
2018-10-21T11:04:25.744Z,1015.99
2018-10-21T11:05:25.750Z,1016.04
2018-10-21T11:06:25.859Z,1016.09
2018-10-21T11:07:25.899Z,1016.14
2018-10-21T11:08:25.829Z,1016.21
2018-10-21T11:09:25.863Z,1016.15
2018-10-21T11:10:25.872Z,1016.12
2018-10-21T11:11:25.890Z,1016.06
2018-10-21T11:12:25.911Z,1015.98
2018-10-21T11:13:25.939Z,1015.88
2018-10-21T11:14:26.026Z,1015.87
2018-10-21T11:15:26.037Z,1015.87
2018-10-21T11:16:26.013Z,1015.87
2018-10-21T11:17:26.038Z,1015.79
2018-10-21T11:18:26.049Z,1015.79
2018-10-21T11:19:26.076Z,1015.74
2018-10-21T11:20:26.109Z,1015.76
2018-10-21T11:21:26.129Z,1015.73
2018-10-21T11:22:26.227Z,1015.69
2018-10-21T11:23:26.176Z,1015.62
2018-10-21T11:24:26.201Z,1015.67
2018-10-21T11:25:26.236Z,1015.68
2018-10-21T11:26:26.261Z,1015.66
2018-10-21T11:27:26.278Z,1015.67
2018-10-21T11:28:26.298Z,1015.67
2018-10-21T11:29:26.328Z,1015.67
2018-10-21T11:30:26.360Z,1015.64
2018-10-21T11:31:26.369Z,1015.59
2018-10-21T11:32:26.412Z,1015.59
2018-10-21T11:33:26.414Z,1015.56
2018-10-21T11:34:26.451Z,1015.61
2018-10-21T11:35:26.462Z,1015.57
2018-10-21T11:36:26.488Z,1015.53
2018-10-21T11:37:26.728Z,1015.55
2018-10-21T11:38:26.540Z,1015.56
2018-10-21T11:39:26.561Z,1015.50
2018-10-21T11:40:26.579Z,1015.42
2018-10-21T11:41:26.604Z,1015.38
2018-10-21T11:42:26.642Z,1015.44
2018-10-21T11:43:26.669Z,1015.40
2018-10-21T11:44:26.668Z,1015.48
2018-10-21T11:45:26.702Z,1015.46
2018-10-21T11:46:26.831Z,1015.48
2018-10-21T11:47:26.738Z,1015.43
2018-10-21T11:48:26.764Z,1015.42
2018-10-21T11:49:26.804Z,1015.39
2018-10-21T11:50:26.898Z,1015.43
2018-10-21T11:51:26.830Z,1015.41
2018-10-21T11:52:26.868Z,1015.37
2018-10-21T11:53:26.885Z,1015.41
2018-10-21T11:54:26.909Z,1015.39
2018-10-21T11:55:26.936Z,1015.32
2018-10-21T11:56:26.953Z,1015.33
2018-10-21T11:57:26.975Z,1015.36
2018-10-21T11:58:27.000Z,1015.34
2018-10-21T11:59:27.013Z,1015.30
2018-10-21T12:00:27.120Z,1015.29
2018-10-21T12:01:27.052Z,1015.24
2018-10-21T12:03:27.097Z,1015.24
2018-10-21T12:05:27.141Z,1015.25
2018-10-21T12:06:27.166Z,1015.19
2018-10-21T12:07:27.198Z,1015.22
2018-10-21T12:08:27.213Z,1015.16
2018-10-21T12:09:27.230Z,1015.17
2018-10-21T12:10:27.252Z,1015.17
2018-10-21T12:11:27.274Z,1015.21
2018-10-21T12:12:27.297Z,1015.22
2018-10-21T12:13:27.325Z,1015.16